Time;durP1;ratioP1;P1;durP2;ratioP2;P2;SDS_P1;SDS_P2;PMS_P1;PMS_P2;Temp;Humidity;BMP_temperature;BMP_pressure;BME280_temperature;BME280_humidity;BME280_pressure;Samples;Min_cycle;Max_cycle;Signal;HPM_P1;HPM_P2
2023/05/23 00:00:13;;;;;;;7.95;7.15;;;;;;;22.73;60.45;100799.19;5072491;28;20063;-49
2023/05/23 00:02:42;;;;;;;8.85;7.95;;;;;;;22.71;60.43;100799.34;5073060;28;20055;-50
2023/05/23 00:05:09;;;;;;;8.95;7.55;;;;;;;22.70;60.39;100794.94;5073116;28;20052;-49
2023/05/23 00:07:37;;;;;;;8.43;7.55;;;;;;;22.73;60.48;100799.19;5072542;28;20044;-49
2023/05/23 00:10:05;;;;;;;7.68;6.93;;;;;;;22.73;60.31;100792.94;5072879;28;20052;-59
2023/05/23 00:12:32;;;;;;;8.73;7.82;;;;;;;22.71;60.37;100796.63;5072202;28;20041;-59
2023/05/23 00:15:00;;;;;;;8.48;7.57;;;;;;;22.71;60.48;100796.63;5072064;28;20048;-59
2023/05/23 00:17:27;;;;;;;9.75;8.40;;;;;;;22.70;60.31;100794.94;5072244;28;20043;-59
2023/05/23 00:19:54;;;;;;;12.48;7.60;;;;;;;22.70;60.32;100789.56;5074293;28;20044;-60
2023/05/23 00:22:22;;;;;;;8.85;7.93;;;;;;;22.70;60.22;100789.56;5075915;28;20491;-60
2023/05/23 00:24:49;;;;;;;7.80;7.00;;;;;;;22.70;60.50;100791.41;5076371;28;20040;-60
2023/05/23 00:27:17;;;;;;;8.20;7.45;;;;;;;22.68;60.26;100794.25;5075926;28;20507;-59
2023/05/23 00:29:44;;;;;;;8.43;7.53;;;;;;;22.69;60.42;100795.13;5090116;28;20044;-57
2023/05/23 00:32:11;;;;;;;8.60;7.70;;;;;;;22.69;60.60;100793.25;5095609;28;20039;-49
2023/05/23 00:34:39;;;;;;;9.48;7.90;;;;;;;22.68;60.38;100794.25;5094622;28;20056;-48
2023/05/23 00:37:06;;;;;;;8.25;7.40;;;;;;;22.69;60.51;100792.41;5094250;28;20044;-50
2023/05/23 00:39:34;;;;;;;8.48;7.68;;;;;;;22.69;60.29;100789.72;5095120;28;20052;-49
2023/05/23 00:42:04;;;;;;;8.48;7.57;;;;;;;22.69;60.32;100790.56;5094932;28;20044;-59
2023/05/23 00:44:31;;;;;;;8.27;7.45;;;;;;;22.69;60.12;100792.41;5094846;28;20059;-59
2023/05/23 00:46:59;;;;;;;8.43;7.25;;;;;;;22.69;60.44;100789.72;5096245;28;20049;-59
2023/05/23 00:49:27;;;;;;;8.27;7.47;;;;;;;22.69;60.26;100789.72;5095746;28;20048;-59
2023/05/23 00:51:54;;;;;;;8.18;7.38;;;;;;;22.67;60.30;100787.16;5095826;28;20048;-48
2023/05/23 00:54:29;;;;;;;8.70;7.90;;;;;;;22.67;60.24;100779.06;5077587;28;20063;-49
2023/05/23 00:56:57;;;;;;;9.38;7.40;;;;;;;22.67;60.21;100783.63;5075713;28;20045;-48
2023/05/23 00:59:25;;;;;;;9.07;7.90;;;;;;;22.67;60.31;100783.63;5075396;28;20049;-49
2023/05/23 01:01:55;;;;;;;10.07;7.40;;;;;;;22.66;60.32;100777.38;5075437;28;20052;-59
2023/05/23 01:04:25;;;;;;;7.72;6.93;;;;;;;22.66;60.17;100790.03;5075946;28;20051;-59
2023/05/23 01:06:54;;;;;;;8.57;7.40;;;;;;;22.65;60.32;100786.47;5075289;28;20056;-59
2023/05/23 01:09:24;;;;;;;8.85;8.02;;;;;;;22.65;60.33;100788.34;5075594;28;20041;-59
2023/05/23 01:12:19;;;;;;;7.85;7.15;;;;;;;22.65;60.43;100780.25;5074078;28;20489;-59
2023/05/23 01:14:56;;;;;;;8.18;7.43;;;;;;;22.66;60.28;100781.94;5111256;28;20067;-59
2023/05/23 01:17:33;;;;;;;8.20;7.40;;;;;;;22.64;60.42;100768.56;5094422;28;20048;-59
2023/05/23 01:20:14;;;;;;;8.35;7.50;;;;;;;22.63;60.36;100780.38;5095405;28;20044;-59
2023/05/23 01:22:54;;;;;;;12.07;7.70;;;;;;;22.64;60.25;100790.16;5095070;28;20047;-60
2023/05/23 01:25:39;;;;;;;7.50;6.80;;;;;;;22.63;60.37;100785.78;5095415;28;20475;-59
2023/05/23 01:28:11;;;;;;;8.45;7.38;;;;;;;22.63;60.26;100788.47;5094961;28;20040;-59
2023/05/23 01:30:40;;;;;;;8.27;7.47;;;;;;;22.63;60.26;100793.88;5093599;28;20052;-59
2023/05/23 01:33:10;;;;;;;7.75;7.05;;;;;;;22.64;60.55;100792.00;5095031;28;20051;-59
2023/05/23 01:35:39;;;;;;;8.23;7.13;;;;;;;22.64;60.30;100797.41;5093079;28;20059;-59
2023/05/23 01:38:06;;;;;;;8.15;7.35;;;;;;;22.64;60.55;100794.72;5093524;28;20476;-59
2023/05/23 01:40:35;;;;;;;8.50;7.70;;;;;;;22.62;60.55;100786.78;5093740;28;20048;-60
2023/05/23 01:43:03;;;;;;;8.38;7.50;;;;;;;22.63;60.41;100791.16;5094761;28;20400;-59
2023/05/23 01:45:30;;;;;;;8.30;7.07;;;;;;;22.62;60.75;100785.94;5094726;28;20052;-59
2023/05/23 01:48:00;;;;;;;8.52;7.38;;;;;;;22.62;60.83;100786.78;5094989;28;20044;-48
2023/05/23 01:50:28;;;;;;;8.68;7.78;;;;;;;22.63;60.49;100788.47;5076640;28;20056;-48
2023/05/23 01:52:56;;;;;;;7.90;7.10;;;;;;;22.63;60.70;100787.63;5093508;28;20048;-49
2023/05/23 01:55:25;;;;;;;7.47;6.72;;;;;;;22.63;60.62;100783.06;5076112;28;20052;-50
2023/05/23 01:57:55;;;;;;;7.78;7.07;;;;;;;22.63;60.64;100785.78;5074563;28;20051;-48
2023/05/23 02:00:23;;;;;;;8.48;7.65;;;;;;;22.63;60.57;100791.16;5072650;28;20052;-48
2023/05/23 02:02:51;;;;;;;7.70;6.93;;;;;;;22.63;60.64;100782.22;5073996;28;20139;-47
2023/05/23 02:05:18;;;;;;;8.32;7.53;;;;;;;22.62;60.60;100784.09;5072670;28;20072;-49
2023/05/23 02:07:46;;;;;;;8.65;7.70;;;;;;;22.62;60.60;100784.09;5073036;28;20059;-49
2023/05/23 02:10:16;;;;;;;8.40;7.70;;;;;;;22.61;60.67;100787.78;5072315;28;20064;-49
2023/05/23 02:12:44;;;;;;;7.93;7.13;;;;;;;22.61;60.83;100779.69;5074294;28;20044;-49
2023/05/23 02:15:11;;;;;;;8.57;7.72;;;;;;;22.61;60.62;100777.00;5072744;28;20070;-50
2023/05/23 02:17:40;;;;;;;8.20;7.40;;;;;;;22.62;60.80;100780.53;5072863;28;20059;-50
2023/05/23 02:20:09;;;;;;;8.45;7.35;;;;;;;22.61;60.74;100781.56;5073875;28;20043;-59
2023/05/23 02:22:37;;;;;;;8.85;7.95;;;;;;;22.61;60.48;100774.31;5072761;28;20044;-59
2023/05/23 02:25:05;;;;;;;8.57;7.68;;;;;;;22.60;60.73;100783.38;5073564;28;20044;-59
2023/05/23 02:27:33;;;;;;;9.25;7.78;;;;;;;22.60;60.72;100772.56;5072779;28;20052;-59
2023/05/23 02:30:00;;;;;;;8.80;7.38;;;;;;;22.60;60.71;100777.97;5085944;28;20052;-59
2023/05/23 02:32:29;;;;;;;7.93;7.13;;;;;;;22.61;60.52;100770.75;5093203;28;20051;-59
2023/05/23 02:34:57;;;;;;;8.40;7.53;;;;;;;22.60;60.87;100772.56;5093676;28;20051;-59
2023/05/23 02:37:24;;;;;;;8.15;7.35;;;;;;;22.61;60.46;100771.59;5076031;28;20047;-59
2023/05/23 02:39:52;;;;;;;8.43;7.63;;;;;;;22.61;60.48;100774.31;5092864;28;20062;-59
2023/05/23 02:42:21;;;;;;;8.90;8.10;;;;;;;22.60;60.56;100769.88;5092319;28;20056;-59
2023/05/23 02:44:49;;;;;;;9.38;7.97;;;;;;;22.60;60.66;100772.56;5092315;28;20047;-59
2023/05/23 02:47:17;;;;;;;8.40;7.20;;;;;;;22.59;60.57;100776.28;5092513;28;20056;-59
2023/05/23 02:49:44;;;;;;;8.80;7.93;;;;;;;22.60;60.53;100774.44;5093564;28;20493;-48
2023/05/23 02:52:12;;;;;;;8.80;8.00;;;;;;;22.61;60.64;100776.16;5092321;28;20052;-48
2023/05/23 02:54:40;;;;;;;8.77;7.88;;;;;;;22.60;60.52;100772.56;5089401;28;20067;-52
2023/05/23 02:57:07;;;;;;;8.57;7.75;;;;;;;22.59;60.61;100773.59;5072002;28;20033;-51
2023/05/23 02:59:37;;;;;;;8.40;7.60;;;;;;;22.58;60.59;100766.50;5072064;28;20059;-51
2023/05/23 03:02:05;;;;;;;8.48;7.68;;;;;;;22.59;60.69;100776.28;5072062;28;20044;-48
2023/05/23 03:04:32;;;;;;;8.10;7.30;;;;;;;22.58;60.62;100769.22;5073098;28;20056;-50
2023/05/23 03:07:00;;;;;;;8.52;7.65;;;;;;;22.58;60.55;100769.22;5073181;28;20600;-48
2023/05/23 03:09:29;;;;;;;7.93;7.15;;;;;;;22.58;60.66;100771.06;5072197;28;20048;-48
2023/05/23 03:11:56;;;;;;;8.38;7.57;;;;;;;22.59;60.68;100767.34;5072063;28;20055;-60
2023/05/23 03:14:23;;;;;;;8.98;8.10;;;;;;;22.58;60.62;100769.22;5087358;28;20048;-59
2023/05/23 03:16:51;;;;;;;8.63;7.70;;;;;;;22.59;60.65;100767.34;5092594;28;20499;-60
2023/05/23 03:19:18;;;;;;;9.65;7.97;;;;;;;22.60;60.62;100772.56;5093135;28;20051;-59
2023/05/23 03:21:45;;;;;;;8.32;7.32;;;;;;;22.61;60.89;100774.31;5091960;28;20064;-60
2023/05/23 03:24:13;;;;;;;8.35;7.45;;;;;;;22.62;60.95;100775.16;5093407;28;20040;-59
2023/05/23 03:26:40;;;;;;;8.35;7.55;;;;;;;22.61;60.85;100771.59;5093081;28;20040;-59
2023/05/23 03:29:09;;;;;;;9.93;7.82;;;;;;;22.61;60.82;100771.59;5093157;28;20047;-59
2023/05/23 03:31:37;;;;;;;9.13;8.23;;;;;;;22.60;60.86;100775.28;5088758;28;20053;-59
2023/05/23 03:34:04;;;;;;;9.48;8.23;;;;;;;22.60;60.66;100779.84;5072016;28;20056;-59
2023/05/23 03:36:34;;;;;;;8.90;8.00;;;;;;;22.59;60.62;100770.06;5072950;28;20057;-59
2023/05/23 03:39:02;;;;;;;8.70;7.80;;;;;;;22.58;60.72;100774.59;5071884;28;20041;-59
2023/05/23 03:41:29;;;;;;;7.97;7.28;;;;;;;22.57;60.85;100770.22;5071451;28;20056;-59
2023/05/23 03:43:57;;;;;;;8.20;7.45;;;;;;;22.57;60.85;100774.78;5071140;28;20044;-59
2023/05/23 03:46:25;;;;;;;7.22;6.53;;;;;;;22.57;60.83;100777.47;5073077;28;20052;-59
2023/05/23 03:48:52;;;;;;;7.32;6.63;;;;;;;22.56;60.64;100773.91;5071839;28;20048;-60
2023/05/23 03:51:19;;;;;;;8.25;7.45;;;;;;;22.57;60.88;100780.16;5071549;28;20052;-60
2023/05/23 03:53:47;;;;;;;8.23;7.15;;;;;;;22.56;60.96;100778.44;5072396;28;20071;-60
2023/05/23 03:56:14;;;;;;;8.40;7.60;;;;;;;22.55;60.73;100777.59;5074352;28;20680;-59
2023/05/23 03:58:42;;;;;;;8.57;7.65;;;;;;;22.56;60.83;100781.16;5075457;28;20071;-59
2023/05/23 04:01:13;;;;;;;9.02;7.22;;;;;;;22.55;60.88;100788.41;5075631;28;20366;-59
2023/05/23 04:03:41;;;;;;;8.00;7.20;;;;;;;22.55;60.77;100785.69;5074723;28;20055;-59
2023/05/23 04:06:08;;;;;;;7.88;7.10;;;;;;;22.54;60.88;100778.59;5074268;28;20060;-60
2023/05/23 04:08:40;;;;;;;8.45;7.47;;;;;;;22.55;60.88;100774.91;5075200;28;20059;-59
2023/05/23 04:11:08;;;;;;;8.00;7.18;;;;;;;22.54;60.91;100775.91;5075282;28;20067;-59
2023/05/23 04:13:37;;;;;;;8.35;7.57;;;;;;;22.55;60.79;100782.16;5074820;28;20055;-48
2023/05/23 04:16:05;;;;;;;7.85;7.15;;;;;;;22.54;60.70;100777.78;5076096;28;20488;-48
2023/05/23 04:18:32;;;;;;;7.95;7.10;;;;;;;22.54;60.68;100781.31;5074638;28;20049;-58
2023/05/23 04:21:00;;;;;;;7.80;7.10;;;;;;;22.54;60.67;100784.00;5074838;28;20052;-60
2023/05/23 04:23:28;;;;;;;7.93;7.13;;;;;;;22.53;60.77;100790.41;5074776;28;20484;-59
2023/05/23 04:25:56;;;;;;;8.18;7.32;;;;;;;22.55;60.58;100784.84;5074923;28;20048;-59
2023/05/23 04:28:29;;;;;;;8.50;7.70;;;;;;;22.54;60.69;100784.00;5076532;28;20063;-59
2023/05/23 04:30:57;;;;;;;8.30;7.50;;;;;;;22.54;60.73;100791.25;5090040;28;20488;-48
2023/05/23 04:33:29;;;;;;;8.18;7.40;;;;;;;22.53;60.75;100782.31;5095472;28;20059;-49
2023/05/23 04:35:56;;;;;;;8.38;7.57;;;;;;;22.53;60.67;100785.00;5094440;28;20044;-49
2023/05/23 04:38:24;;;;;;;7.13;6.35;;;;;;;22.53;60.63;100784.19;5096565;28;20040;-51
2023/05/23 04:40:52;;;;;;;7.90;7.20;;;;;;;22.52;60.71;100779.75;5095206;28;20048;-59
2023/05/23 04:43:43;;;;;;;8.00;7.30;;;;;;;22.53;60.58;100789.56;5095750;28;20051;-60
2023/05/23 04:46:25;;;;;;;8.23;7.40;;;;;;;22.53;60.56;100790.41;5094876;28;20056;-59
2023/05/23 04:49:09;;;;;;;8.73;7.72;;;;;;;22.55;60.75;100785.69;5094995;28;20056;-59
2023/05/23 04:51:37;;;;;;;8.43;7.53;;;;;;;22.55;60.77;100780.31;5094763;28;20056;-48
2023/05/23 04:54:30;;;;;;;8.18;7.38;;;;;;;22.56;61.04;100781.97;5095467;28;20492;-51
2023/05/23 04:57:01;;;;;;;8.10;7.30;;;;;;;22.56;60.78;100781.97;5088666;28;20396;-52
2023/05/23 04:59:30;;;;;;;8.07;7.28;;;;;;;22.55;60.72;100788.41;5073213;28;20063;-48
2023/05/23 05:01:58;;;;;;;7.60;6.90;;;;;;;22.55;60.69;100782.16;5075023;28;20044;-59
2023/05/23 05:04:25;;;;;;;8.30;7.50;;;;;;;22.55;60.89;100788.41;5073713;28;20049;-59
2023/05/23 05:06:53;;;;;;;8.00;6.95;;;;;;;22.55;60.64;100795.66;5074366;28;20481;-59
2023/05/23 05:09:20;;;;;;;7.85;6.95;;;;;;;22.55;60.65;100796.50;5075007;28;20055;-60
2023/05/23 05:11:49;;;;;;;7.50;6.80;;;;;;;22.55;60.82;100790.25;5073716;28;20064;-49
2023/05/23 05:14:19;;;;;;;10.23;7.85;;;;;;;22.54;60.74;100794.81;5082297;28;20504;-50
2023/05/23 05:16:47;;;;;;;8.38;7.45;;;;;;;22.54;60.84;100792.09;5094224;28;20407;-49
2023/05/23 05:19:15;;;;;;;8.82;7.55;;;;;;;22.54;60.96;100800.19;5093557;28;20048;-49
2023/05/23 05:21:42;;;;;;;8.02;7.22;;;;;;;22.54;60.66;100789.41;5095164;28;20395;-50
2023/05/23 05:24:11;;;;;;;8.05;7.25;;;;;;;22.53;60.66;100798.50;5094476;28;20048;-48
2023/05/23 05:26:39;;;;;;;8.13;7.43;;;;;;;22.53;60.90;100793.13;5095032;28;20044;-48
2023/05/23 05:29:06;;;;;;;8.48;7.10;;;;;;;22.54;60.83;100794.81;5093958;28;20052;-48
2023/05/23 05:31:36;;;;;;;8.10;7.30;;;;;;;22.53;60.90;100792.25;5093776;28;20044;-48
2023/05/23 05:34:04;;;;;;;8.10;6.93;;;;;;;22.53;60.82;100793.13;5093718;28;20052;-49
2023/05/23 05:36:32;;;;;;;7.78;6.97;;;;;;;22.55;60.92;100792.94;5093687;28;20055;-59
2023/05/23 05:39:00;;;;;;;8.50;7.70;;;;;;;22.54;60.72;100794.81;5093608;28;20052;-59
2023/05/23 05:41:27;;;;;;;8.48;7.25;;;;;;;22.54;60.67;100791.25;5094026;28;20492;-48
2023/05/23 05:43:54;;;;;;;8.20;7.40;;;;;;;22.53;60.73;100801.19;5093600;28;20416;-49
2023/05/23 05:46:22;;;;;;;9.10;8.30;;;;;;;22.53;60.90;100798.50;5093078;28;20054;-59
2023/05/23 05:48:50;;;;;;;8.00;7.30;;;;;;;22.54;60.65;100799.34;5093265;28;20052;-60
2023/05/23 05:51:18;;;;;;;9.75;8.13;;;;;;;22.54;60.84;100794.81;5093480;28;20369;-49
2023/05/23 05:53:48;;;;;;;7.95;7.18;;;;;;;22.54;60.71;100786.72;5094127;28;20052;-49
2023/05/23 05:56:16;;;;;;;8.02;7.15;;;;;;;22.56;60.67;100786.53;5093789;28;20048;-48
2023/05/23 05:58:44;;;;;;;8.57;7.70;;;;;;;22.57;60.75;100797.19;5082377;28;20044;-49
2023/05/23 06:01:15;;;;;;;7.85;7.05;;;;;;;22.56;60.92;100795.47;5087217;28;20064;-59
2023/05/23 06:03:43;;;;;;;9.13;7.90;;;;;;;22.57;60.78;100793.66;5074138;28;20388;-59
2023/05/23 06:06:11;;;;;;;7.88;7.07;;;;;;;22.57;61.01;100799.06;5072912;28;20045;-59
2023/05/23 06:08:40;;;;;;;8.48;7.57;;;;;;;22.58;60.95;100800.75;5072845;28;20369;-59
2023/05/23 06:11:11;;;;;;;8.68;7.75;;;;;;;22.58;61.00;100806.13;5073563;28;20051;-48
2023/05/23 06:13:38;;;;;;;8.57;7.78;;;;;;;22.57;61.20;100802.59;5073833;28;20051;-49
2023/05/23 06:16:06;;;;;;;7.85;7.15;;;;;;;22.58;60.89;100801.59;5073687;28;20376;-49
2023/05/23 06:18:33;;;;;;;8.55;7.75;;;;;;;22.58;61.05;100792.66;5073378;28;20504;-49
2023/05/23 06:21:00;;;;;;;8.77;7.97;;;;;;;22.58;61.07;100801.59;5074018;28;20053;-60
2023/05/23 06:23:28;;;;;;;8.18;7.18;;;;;;;22.60;60.96;100796.03;5072657;28;20512;-60
2023/05/23 06:25:56;;;;;;;9.57;7.72;;;;;;;22.60;61.15;100801.41;5073611;28;20048;-60
2023/05/23 06:28:24;;;;;;;8.20;7.40;;;;;;;22.60;61.16;100796.88;5073844;28;20048;-49
2023/05/23 06:30:51;;;;;;;9.65;7.93;;;;;;;22.60;61.05;100791.47;5076574;28;20036;-60
2023/05/23 06:33:19;;;;;;;8.02;7.20;;;;;;;22.61;60.92;100793.19;5092957;28;20075;-60
2023/05/23 06:35:48;;;;;;;9.27;7.65;;;;;;;22.62;60.89;100784.09;5092834;28;20052;-60
2023/05/23 06:38:15;;;;;;;8.70;7.53;;;;;;;22.63;61.03;100795.72;5093875;28;20399;-60
2023/05/23 06:40:44;;;;;;;7.97;7.18;;;;;;;22.62;60.96;100785.94;5093115;28;20040;-49
2023/05/23 06:43:12;;;;;;;7.88;7.13;;;;;;;22.63;61.01;100787.63;5092552;28;20048;-49
2023/05/23 06:45:47;;;;;;;8.23;7.40;;;;;;;22.63;60.88;100788.47;5092565;28;20063;-48
2023/05/23 06:48:15;;;;;;;7.90;7.10;;;;;;;22.64;61.04;100794.72;5092461;28;20293;-49
2023/05/23 06:50:43;;;;;;;9.27;8.00;;;;;;;22.63;61.10;100785.78;5093737;28;20028;-48
2023/05/23 06:53:11;;;;;;;7.85;7.05;;;;;;;22.63;61.09;100785.78;5092035;28;20063;-49
2023/05/23 06:55:40;;;;;;;9.23;7.65;;;;;;;22.63;61.25;100788.47;5092531;28;20079;-48
2023/05/23 06:58:11;;;;;;;8.65;7.55;;;;;;;22.64;61.50;100790.16;5092350;28;20052;-48
2023/05/23 07:00:39;;;;;;;7.97;7.03;;;;;;;22.67;61.02;100787.16;5066212;28;20056;-64
2023/05/23 07:03:13;;;;;;;9.93;7.95;;;;;;;22.66;61.10;100782.78;5071613;28;20044;-63
2023/05/23 07:05:41;;;;;;;8.55;7.75;;;;;;;22.68;61.07;100791.53;5071415;28;20131;-60
2023/05/23 07:08:10;;;;;;;8.75;7.85;;;;;;;22.72;61.35;100786.69;5073753;28;20067;-59
2023/05/23 07:10:40;;;;;;;6.80;6.05;;;;;;;22.75;61.24;100794.47;5073690;28;20594;-60
2023/05/23 07:13:22;;;;;;;7.95;7.15;;;;;;;22.79;61.67;100790.47;5071957;28;20064;-61
2023/05/23 07:15:49;;;;;;;9.10;7.95;;;;;;;22.82;61.51;100792.03;5089096;28;20081;-60
2023/05/23 07:18:18;;;;;;;9.30;7.40;;;;;;;22.85;61.38;100797.97;5091892;28;20059;-63
2023/05/23 07:20:45;;;;;;;9.10;8.00;;;;;;;22.89;61.11;100802.03;5091140;28;20040;-61
2023/05/23 07:23:16;;;;;;;8.07;7.28;;;;;;;22.92;61.05;100792.78;5091525;28;20048;-58
2023/05/23 07:25:45;;;;;;;9.55;7.82;;;;;;;22.97;61.09;100805.81;5090459;28;20399;-60
2023/05/23 07:28:38;;;;;;;8.57;7.78;;;;;;;22.99;60.97;100804.69;5090486;28;20048;-60
2023/05/23 07:31:08;;;;;;;9.50;7.53;;;;;;;23.01;60.99;100804.50;5095150;28;20368;-49
2023/05/23 07:33:37;;;;;;;8.73;7.82;;;;;;;23.02;60.60;100804.38;5095347;28;20048;-49
2023/05/23 07:36:05;;;;;;;9.70;8.20;;;;;;;23.03;60.27;100803.34;5095823;28;20060;-49
2023/05/23 07:38:32;;;;;;;10.15;7.70;;;;;;;23.04;60.22;100802.34;5096908;28;20051;-51
2023/05/23 07:41:00;;;;;;;8.77;7.88;;;;;;;23.06;60.26;100800.34;5095828;28;20048;-59
2023/05/23 07:43:39;;;;;;;8.50;7.60;;;;;;;23.08;59.96;100794.78;5095340;28;20048;-60
2023/05/23 07:46:07;;;;;;;8.07;7.28;;;;;;;23.09;60.00;100802.75;5095768;28;20506;-59
2023/05/23 07:48:36;;;;;;;9.27;8.38;;;;;;;23.11;59.79;100806.13;5095531;28;20055;-58
2023/05/23 07:51:03;;;;;;;10.38;8.07;;;;;;;23.12;59.87;100798.84;5096626;28;20040;-54
2023/05/23 07:53:31;;;;;;;10.07;7.70;;;;;;;23.13;59.60;100793.31;5095142;28;20515;-55
2023/05/23 07:55:58;;;;;;;8.82;7.80;;;;;;;23.14;59.76;100797.72;5095074;28;20052;-55
2023/05/23 07:58:31;;;;;;;9.20;7.75;;;;;;;23.14;59.46;100796.88;5095444;28;20051;-55
2023/05/23 08:00:58;;;;;;;8.60;7.80;;;;;;;23.14;59.57;100792.31;5095308;28;20063;-55
2023/05/23 08:03:44;;;;;;;8.98;7.38;;;;;;;23.15;59.48;100794.00;5103172;28;20510;-55
2023/05/23 08:06:22;;;;;;;8.88;8.07;;;;;;;23.15;59.38;100785.88;5095844;28;20059;-55
2023/05/23 08:08:50;;;;;;;8.40;7.60;;;;;;;23.16;59.36;100784.88;5095390;28;20055;-55
2023/05/23 08:11:17;;;;;;;9.07;8.18;;;;;;;23.17;58.91;100792.00;5096519;28;20431;-55
2023/05/23 08:13:49;;;;;;;8.83;7.13;;;;;;;23.19;58.98;100789.97;5094887;28;20048;-55
2023/05/23 08:16:36;;;;;;;9.25;8.35;;;;;;;23.20;59.08;100791.66;5103639;28;20280;-54
2023/05/23 08:19:09;;;;;;;8.35;7.55;;;;;;;23.19;58.92;100784.56;5094679;28;20507;-55
2023/05/23 08:21:37;;;;;;;8.77;7.70;;;;;;;23.22;58.88;100787.97;5094768;28;20044;-58
2023/05/23 08:24:05;;;;;;;10.48;8.25;;;;;;;23.22;58.66;100786.13;5096157;28;20040;-59
2023/05/23 08:26:34;;;;;;;10.40;8.30;;;;;;;23.22;58.99;100788.81;5095018;28;20051;-58
2023/05/23 08:29:08;;;;;;;9.27;8.15;;;;;;;23.25;58.75;100777.69;5095106;28;20062;-58
2023/05/23 08:31:36;;;;;;;9.23;8.23;;;;;;;23.25;58.93;100782.22;5094875;28;20048;-55
2023/05/23 08:34:06;;;;;;;9.27;8.20;;;;;;;23.26;58.94;100790.19;5095884;28;20748;-54
2023/05/23 08:36:35;;;;;;;9.30;7.82;;;;;;;23.26;58.63;100775.84;5093385;28;20534;-55
2023/05/23 08:39:05;;;;;;;10.57;8.60;;;;;;;23.27;58.60;100778.38;5093469;28;20043;-55
2023/05/23 08:41:38;;;;;;;8.27;7.47;;;;;;;23.28;58.78;100776.53;5092930;28;20044;-59
2023/05/23 08:44:09;;;;;;;8.87;7.97;;;;;;;23.28;58.91;100779.22;5093662;28;20062;-58
2023/05/23 08:46:45;;;;;;;8.10;7.25;;;;;;;23.29;58.90;100780.91;5093540;28;20500;-58
2023/05/23 08:49:23;;;;;;;8.30;7.20;;;;;;;23.30;58.83;100779.94;5093557;28;20434;-58
2023/05/23 08:52:00;;;;;;;8.48;7.68;;;;;;;23.30;58.58;100782.63;5093620;28;20044;-58
2023/05/23 08:54:28;;;;;;;8.88;7.18;;;;;;;23.30;58.74;100786.19;5093217;28;20048;-58
2023/05/23 08:56:56;;;;;;;8.52;7.65;;;;;;;23.30;58.89;100779.94;5093026;28;20056;-58
2023/05/23 08:59:25;;;;;;;8.27;7.45;;;;;;;23.31;58.88;100782.47;5093142;28;20059;-58
2023/05/23 09:01:55;;;;;;;8.95;8.05;;;;;;;23.30;58.76;100780.78;5094255;28;20079;-58
2023/05/23 09:04:23;;;;;;;8.90;8.10;;;;;;;23.33;58.83;100787.69;5093217;28;20059;-59
2023/05/23 09:06:58;;;;;;;8.73;7.93;;;;;;;23.32;59.13;100776.03;5093386;28;20510;-59
2023/05/23 09:09:28;;;;;;;9.35;8.43;;;;;;;23.32;59.35;100773.34;5092636;28;20052;-59
2023/05/23 09:11:58;;;;;;;8.65;7.78;;;;;;;23.32;59.16;100775.19;5093217;28;20384;-54
2023/05/23 09:14:30;;;;;;;10.68;7.93;;;;;;;23.32;59.46;100783.31;5093231;28;20048;-53
2023/05/23 09:17:02;;;;;;;8.98;7.55;;;;;;;23.31;59.19;100774.34;5093166;28;20044;-53
2023/05/23 09:19:31;;;;;;;10.20;8.68;;;;;;;23.33;59.06;100782.28;5092403;28;20052;-54
2023/05/23 09:22:14;;;;;;;8.43;7.63;;;;;;;23.34;59.43;100784.00;5092882;28;20059;-59
2023/05/23 09:24:56;;;;;;;9.15;8.23;;;;;;;23.33;59.45;100783.13;5092263;28;20052;-59
2023/05/23 09:27:24;;;;;;;9.70;8.52;;;;;;;23.34;59.53;100784.00;5092879;28;20052;-59
2023/05/23 09:29:51;;;;;;;9.50;8.38;;;;;;;23.34;59.09;100786.72;5092943;28;20522;-54
2023/05/23 09:32:20;;;;;;;9.70;8.60;;;;;;;23.34;59.28;100778.59;5093028;28;20059;-59
2023/05/23 09:34:57;;;;;;;8.80;8.00;;;;;;;23.34;59.49;100778.59;5051376;28;1175794;-59
2023/05/23 09:37:29;;;;;;;10.57;8.77;;;;;;;23.34;59.45;100775.91;5093550;28;20048;-59
2023/05/23 09:40:05;;;;;;;12.13;9.35;;;;;;;23.34;59.72;100773.19;5093716;28;20048;-54
2023/05/23 09:42:33;;;;;;;10.18;8.48;;;;;;;23.34;59.38;100774.03;5093828;28;20055;-54
2023/05/23 09:45:01;;;;;;;10.75;9.65;;;;;;;23.34;59.32;100768.63;5093421;28;20055;-55
2023/05/23 09:47:31;;;;;;;10.07;9.00;;;;;;;23.35;59.53;100772.19;5093186;28;20403;-54
2023/05/23 09:49:58;;;;;;;10.45;8.60;;;;;;;23.35;59.43;100764.94;5094670;28;20051;-59
2023/05/23 09:52:26;;;;;;;12.60;9.30;;;;;;;23.35;59.64;100759.53;5092894;28;20052;-59
2023/05/23 09:54:54;;;;;;;10.13;9.10;;;;;;;23.35;59.48;100764.94;5093455;28;20368;-59
2023/05/23 09:57:23;;;;;;;10.05;9.05;;;;;;;23.36;59.67;100757.66;5094590;28;20063;-59
2023/05/23 09:59:56;;;;;;;10.48;9.38;;;;;;;23.34;59.62;100763.25;5093886;28;20043;-55
2023/05/23 10:02:53;;;;;;;10.93;9.82;;;;;;;23.34;59.60;100757.00;5094273;28;20040;-55
2023/05/23 10:05:32;;;;;;;11.90;9.93;;;;;;;23.34;59.51;100760.53;5094432;28;20054;-54
2023/05/23 10:08:11;;;;;;;11.02;9.93;;;;;;;23.35;59.74;100761.38;5094452;28;20044;-54
2023/05/23 10:10:56;;;;;;;11.25;9.77;;;;;;;23.33;59.35;100766.91;5094349;28;20051;-59
2023/05/23 10:13:28;;;;;;;10.02;8.98;;;;;;;23.34;59.30;100749.72;5094301;28;20043;-59
2023/05/23 10:16:06;;;;;;;9.73;8.75;;;;;;;23.35;59.39;100753.28;5094113;28;20044;-59
2023/05/23 10:18:42;;;;;;;9.95;8.80;;;;;;;23.35;59.50;100756.81;5094100;28;20051;-59
2023/05/23 10:21:19;;;;;;;10.43;9.35;;;;;;;23.34;59.35;100759.69;5094046;28;20048;-59
2023/05/23 10:23:47;;;;;;;9.55;8.57;;;;;;;23.36;59.17;100760.38;5093764;28;20066;-59
2023/05/23 10:26:16;;;;;;;11.70;9.52;;;;;;;23.36;59.37;100760.38;5094139;28;20075;-59
2023/05/23 10:28:46;;;;;;;10.40;9.40;;;;;;;23.35;58.90;100758.69;5094245;28;20044;-59
2023/05/23 10:31:14;;;;;;;10.13;9.10;;;;;;;23.35;58.84;100762.22;5092805;28;20048;-59
2023/05/23 10:33:52;;;;;;;10.80;9.50;;;;;;;23.36;58.68;100752.25;5093818;28;20550;-59
2023/05/23 10:36:39;;;;;;;11.43;9.27;;;;;;;23.36;58.56;100754.97;5093745;28;20048;-58
2023/05/23 10:39:50;;;;;;;9.57;8.68;;;;;;;23.36;58.65;100753.09;5093827;28;20377;-59
2023/05/23 10:42:27;;;;;;;9.55;8.65;;;;;;;23.36;58.79;100757.66;5066894;28;20500;-59
2023/05/23 10:45:23;;;;;;;12.35;8.93;;;;;;;23.36;58.52;100755.81;5079973;28;20044;-59
2023/05/23 10:47:51;;;;;;;9.07;8.18;;;;;;;23.36;58.63;100749.56;5093665;28;20052;-59
2023/05/23 10:50:33;;;;;;;9.73;8.77;;;;;;;23.37;58.34;100753.94;5093746;28;20063;-59
2023/05/23 10:53:03;;;;;;;9.52;7.63;;;;;;;23.35;58.53;100746.00;5093590;28;20055;-59
2023/05/23 10:55:35;;;;;;;9.13;8.15;;;;;;;23.36;58.22;100746.84;5093330;28;20044;-59
2023/05/23 10:58:19;;;;;;;11.20;9.00;;;;;;;23.37;58.24;100745.84;5093532;28;20044;-59
2023/05/23 11:00:53;;;;;;;9.40;8.50;;;;;;;23.35;58.00;100740.59;5093539;28;20040;-54
2023/05/23 11:03:47;;;;;;;9.35;8.35;;;;;;;23.35;58.25;100737.91;5093522;28;20043;-54
2023/05/23 11:06:43;;;;;;;9.35;8.45;;;;;;;23.36;57.92;100736.06;5092115;28;20048;-54
2023/05/23 11:09:18;;;;;;;8.93;8.02;;;;;;;23.36;58.05;100727.94;5091916;28;20048;-54
2023/05/23 11:11:58;;;;;;;9.50;8.60;;;;;;;23.36;58.31;100736.06;5073015;28;20063;-59
2023/05/23 11:14:26;;;;;;;9.35;8.35;;;;;;;23.36;58.60;100730.66;5073757;28;20138;-59
2023/05/23 11:16:53;;;;;;;10.10;9.02;;;;;;;23.38;58.48;100734.06;5093212;28;20491;-59
2023/05/23 11:19:24;;;;;;;9.60;8.60;;;;;;;23.36;58.18;100731.50;5093171;28;20054;-59
2023/05/23 11:22:01;;;;;;;9.82;8.65;;;;;;;23.36;57.97;100730.66;5093213;28;20040;-54
2023/05/23 11:25:11;;;;;;;8.93;8.02;;;;;;;23.35;58.22;100728.97;5093332;28;20111;-55
2023/05/23 11:27:40;;;;;;;10.00;8.40;;;;;;;23.35;58.19;100729.81;5090978;28;20163;-54
2023/05/23 11:30:08;;;;;;;9.52;8.63;;;;;;;23.35;57.87;100726.25;5090787;28;20050;-59
2023/05/23 11:32:36;;;;;;;9.27;8.38;;;;;;;23.35;58.18;100724.41;5088883;28;20542;-59
2023/05/23 11:35:10;;;;;;;8.40;7.70;;;;;;;23.37;58.12;100718.81;5090200;28;20064;-59
2023/05/23 11:37:38;;;;;;;11.93;8.73;;;;;;;23.38;58.40;100717.84;5090353;28;20044;-59
2023/05/23 11:40:25;;;;;;;9.95;8.95;;;;;;;23.38;58.61;100715.13;5090391;28;20082;-54